sensor_id;sensor_type;location;lat;lon;timestamp;temperature;humidity
41547;DHT22;27271;45.412;10.852;2023-04-01T00:00:40;7.60;99.90
41547;DHT22;27271;45.412;10.852;2023-04-01T00:04:03;7.50;99.90
41547;DHT22;27271;45.412;10.852;2023-04-01T00:07:26;7.60;99.90
41547;DHT22;27271;45.412;10.852;2023-04-01T00:10:52;7.60;99.90
41547;DHT22;27271;45.412;10.852;2023-04-01T00:14:14;7.50;99.90
41547;DHT22;27271;45.412;10.852;2023-04-01T00:17:36;7.50;99.90
41547;DHT22;27271;45.412;10.852;2023-04-01T00:20:59;7.50;99.90
41547;DHT22;27271;45.412;10.852;2023-04-01T00:24:22;7.50;99.90
41547;DHT22;27271;45.412;10.852;2023-04-01T00:27:45;7.40;99.90
41547;DHT22;27271;45.412;10.852;2023-04-01T00:31:09;7.40;99.90
41547;DHT22;27271;45.412;10.852;2023-04-01T00:34:32;7.40;99.90
41547;DHT22;27271;45.412;10.852;2023-04-01T00:37:55;7.50;99.90
41547;DHT22;27271;45.412;10.852;2023-04-01T00:41:19;7.60;99.90
41547;DHT22;27271;45.412;10.852;2023-04-01T00:44:47;7.60;99.90
41547;DHT22;27271;45.412;10.852;2023-04-01T00:51:37;7.60;99.90
41547;DHT22;27271;45.412;10.852;2023-04-01T00:55:03;7.60;99.90
41547;DHT22;27271;45.412;10.852;2023-04-01T00:58:30;7.60;99.90
41547;DHT22;27271;45.412;10.852;2023-04-01T01:01:53;7.70;99.90
41547;DHT22;27271;45.412;10.852;2023-04-01T01:05:16;7.80;99.90
41547;DHT22;27271;45.412;10.852;2023-04-01T01:12:31;8.00;99.90
41547;DHT22;27271;45.412;10.852;2023-04-01T01:16:49;8.10;99.90
41547;DHT22;27271;45.412;10.852;2023-04-01T01:27:28;8.20;99.90
41547;DHT22;27271;45.412;10.852;2023-04-01T01:38:41;8.00;99.90
41547;DHT22;27271;45.412;10.852;2023-04-01T01:42:06;7.80;99.90
41547;DHT22;27271;45.412;10.852;2023-04-01T01:45:34;7.60;99.90
41547;DHT22;27271;45.412;10.852;2023-04-01T01:49:00;7.50;99.90
41547;DHT22;27271;45.412;10.852;2023-04-01T01:52:26;7.40;99.90
41547;DHT22;27271;45.412;10.852;2023-04-01T01:55:50;7.40;99.90
41547;DHT22;27271;45.412;10.852;2023-04-01T01:59:15;7.20;99.90
41547;DHT22;27271;45.412;10.852;2023-04-01T02:02:44;7.10;99.90
41547;DHT22;27271;45.412;10.852;2023-04-01T02:06:14;7.10;99.90
41547;DHT22;27271;45.412;10.852;2023-04-01T02:09:38;7.00;99.90
41547;DHT22;27271;45.412;10.852;2023-04-01T02:13:07;7.00;99.90
41547;DHT22;27271;45.412;10.852;2023-04-01T02:16:46;7.00;99.90
41547;DHT22;27271;45.412;10.852;2023-04-01T02:20:15;6.90;99.90
41547;DHT22;27271;45.412;10.852;2023-04-01T02:23:38;6.70;99.90
41547;DHT22;27271;45.412;10.852;2023-04-01T02:27:02;6.50;99.90
41547;DHT22;27271;45.412;10.852;2023-04-01T02:30:27;6.30;99.90
41547;DHT22;27271;45.412;10.852;2023-04-01T02:33:54;6.20;99.90
41547;DHT22;27271;45.412;10.852;2023-04-01T02:37:17;6.10;99.90
41547;DHT22;27271;45.412;10.852;2023-04-01T02:40:49;6.00;99.90
41547;DHT22;27271;45.412;10.852;2023-04-01T02:44:14;6.00;99.90
41547;DHT22;27271;45.412;10.852;2023-04-01T02:47:38;6.00;99.90
41547;DHT22;27271;45.412;10.852;2023-04-01T02:51:01;6.00;99.90
41547;DHT22;27271;45.412;10.852;2023-04-01T02:54:23;6.00;99.90
41547;DHT22;27271;45.412;10.852;2023-04-01T02:57:46;6.00;99.90
41547;DHT22;27271;45.412;10.852;2023-04-01T03:01:08;6.10;99.90
41547;DHT22;27271;45.412;10.852;2023-04-01T03:04:30;6.10;99.90
41547;DHT22;27271;45.412;10.852;2023-04-01T03:07:53;6.10;99.90
41547;DHT22;27271;45.412;10.852;2023-04-01T03:11:18;6.00;99.90
41547;DHT22;27271;45.412;10.852;2023-04-01T03:14:44;5.90;99.90
41547;DHT22;27271;45.412;10.852;2023-04-01T03:18:06;5.80;99.90
41547;DHT22;27271;45.412;10.852;2023-04-01T03:21:29;5.90;99.90
41547;DHT22;27271;45.412;10.852;2023-04-01T03:24:52;5.90;99.90
41547;DHT22;27271;45.412;10.852;2023-04-01T03:28:14;5.80;99.90
41547;DHT22;27271;45.412;10.852;2023-04-01T03:31:36;5.80;99.90
41547;DHT22;27271;45.412;10.852;2023-04-01T03:35:00;5.70;99.90
41547;DHT22;27271;45.412;10.852;2023-04-01T03:38:26;5.80;99.90
41547;DHT22;27271;45.412;10.852;2023-04-01T03:41:49;5.70;99.90
41547;DHT22;27271;45.412;10.852;2023-04-01T03:45:11;5.70;99.90
41547;DHT22;27271;45.412;10.852;2023-04-01T03:48:34;5.80;99.90
41547;DHT22;27271;45.412;10.852;2023-04-01T03:52:00;5.80;99.90
41547;DHT22;27271;45.412;10.852;2023-04-01T03:55:25;5.90;99.90
41547;DHT22;27271;45.412;10.852;2023-04-01T03:58:48;5.80;99.90
41547;DHT22;27271;45.412;10.852;2023-04-01T04:02:11;5.70;99.90
41547;DHT22;27271;45.412;10.852;2023-04-01T04:05:34;5.60;99.90
41547;DHT22;27271;45.412;10.852;2023-04-01T04:08:57;5.50;99.90
41547;DHT22;27271;45.412;10.852;2023-04-01T04:12:21;5.50;99.90
41547;DHT22;27271;45.412;10.852;2023-04-01T04:15:45;5.40;99.90
41547;DHT22;27271;45.412;10.852;2023-04-01T04:19:07;5.40;99.90
41547;DHT22;27271;45.412;10.852;2023-04-01T04:22:30;5.30;99.90
41547;DHT22;27271;45.412;10.852;2023-04-01T04:26:01;5.20;99.90
41547;DHT22;27271;45.412;10.852;2023-04-01T04:29:24;5.30;99.90
41547;DHT22;27271;45.412;10.852;2023-04-01T04:32:47;5.50;99.90
41547;DHT22;27271;45.412;10.852;2023-04-01T04:36:09;5.40;99.90
41547;DHT22;27271;45.412;10.852;2023-04-01T04:39:32;5.50;99.90
41547;DHT22;27271;45.412;10.852;2023-04-01T04:42:58;5.80;99.90
41547;DHT22;27271;45.412;10.852;2023-04-01T04:46:21;5.80;99.90
41547;DHT22;27271;45.412;10.852;2023-04-01T04:49:50;5.80;99.90
41547;DHT22;27271;45.412;10.852;2023-04-01T04:53:14;5.70;99.90
41547;DHT22;27271;45.412;10.852;2023-04-01T04:56:36;5.50;99.90
41547;DHT22;27271;45.412;10.852;2023-04-01T05:00:01;5.50;99.90
41547;DHT22;27271;45.412;10.852;2023-04-01T05:03:42;5.50;99.90
41547;DHT22;27271;45.412;10.852;2023-04-01T05:07:04;5.40;99.90
41547;DHT22;27271;45.412;10.852;2023-04-01T05:10:27;5.30;99.90
41547;DHT22;27271;45.412;10.852;2023-04-01T05:13:49;5.30;99.90
41547;DHT22;27271;45.412;10.852;2023-04-01T05:17:14;5.30;99.90
41547;DHT22;27271;45.412;10.852;2023-04-01T05:20:37;5.30;99.90
41547;DHT22;27271;45.412;10.852;2023-04-01T05:23:59;5.30;99.90
41547;DHT22;27271;45.412;10.852;2023-04-01T05:27:24;5.40;99.90
41547;DHT22;27271;45.412;10.852;2023-04-01T05:30:49;5.50;99.90
41547;DHT22;27271;45.412;10.852;2023-04-01T05:34:18;5.50;99.90
41547;DHT22;27271;45.412;10.852;2023-04-01T05:37:41;5.70;99.90
41547;DHT22;27271;45.412;10.852;2023-04-01T05:41:04;5.80;99.90
41547;DHT22;27271;45.412;10.852;2023-04-01T05:44:31;6.30;99.90
41547;DHT22;27271;45.412;10.852;2023-04-01T05:48:01;7.80;99.90
41547;DHT22;27271;45.412;10.852;2023-04-01T05:51:29;9.30;99.90
41547;DHT22;27271;45.412;10.852;2023-04-01T05:54:51;10.70;99.90
41547;DHT22;27271;45.412;10.852;2023-04-01T05:58:19;12.50;1.00
41547;DHT22;27271;45.412;10.852;2023-04-01T06:01:42;13.50;99.90
41547;DHT22;27271;45.412;10.852;2023-04-01T06:05:29;14.70;99.90
41547;DHT22;27271;45.412;10.852;2023-04-01T06:08:57;15.90;18.70
41547;DHT22;27271;45.412;10.852;2023-04-01T06:16:31;18.60;1.00
41547;DHT22;27271;45.412;10.852;2023-04-01T06:53:05;20.90;1.00
41547;DHT22;27271;45.412;10.852;2023-04-01T06:57:19;20.70;1.00
41547;DHT22;27271;45.412;10.852;2023-04-01T07:00:44;20.70;1.00
41547;DHT22;27271;45.412;10.852;2023-04-01T07:04:23;22.10;1.00
41547;DHT22;27271;45.412;10.852;2023-04-01T07:07:55;23.00;1.00
41547;DHT22;27271;45.412;10.852;2023-04-01T07:11:31;23.30;1.00
41547;DHT22;27271;45.412;10.852;2023-04-01T07:15:33;24.10;1.00
41547;DHT22;27271;45.412;10.852;2023-04-01T07:19:06;25.00;1.00
41547;DHT22;27271;45.412;10.852;2023-04-01T07:23:02;25.80;1.00
41547;DHT22;27271;45.412;10.852;2023-04-01T07:26:57;26.50;1.00
41547;DHT22;27271;45.412;10.852;2023-04-01T07:35:13;26.80;1.00
41547;DHT22;27271;45.412;10.852;2023-04-01T07:38:56;27.40;1.00
41547;DHT22;27271;45.412;10.852;2023-04-01T07:42:45;28.10;1.00
41547;DHT22;27271;45.412;10.852;2023-04-01T07:50:08;28.50;99.90
41547;DHT22;27271;45.412;10.852;2023-04-01T07:53:46;28.50;99.90
41547;DHT22;27271;45.412;10.852;2023-04-01T08:08:35;28.80;99.90
41547;DHT22;27271;45.412;10.852;2023-04-01T08:13:20;28.70;99.90
41547;DHT22;27271;45.412;10.852;2023-04-01T08:20:41;29.40;99.90
41547;DHT22;27271;45.412;10.852;2023-04-01T08:24:36;29.60;99.90
41547;DHT22;27271;45.412;10.852;2023-04-01T08:32:15;29.00;99.90
41547;DHT22;27271;45.412;10.852;2023-04-01T08:35:59;29.40;99.90
41547;DHT22;27271;45.412;10.852;2023-04-01T08:39:38;29.20;99.90
41547;DHT22;27271;45.412;10.852;2023-04-01T09:09:45;29.60;99.90
41547;DHT22;27271;45.412;10.852;2023-04-01T09:20:51;28.10;99.90
41547;DHT22;27271;45.412;10.852;2023-04-01T09:28:18;28.60;99.90
41547;DHT22;27271;45.412;10.852;2023-04-01T09:32:17;27.60;99.90
41547;DHT22;27271;45.412;10.852;2023-04-01T09:36:03;27.50;99.90
41547;DHT22;27271;45.412;10.852;2023-04-01T09:51:30;26.00;99.90
41547;DHT22;27271;45.412;10.852;2023-04-01T10:22:21;27.20;99.90
41547;DHT22;27271;45.412;10.852;2023-04-01T11:22:22;24.40;99.90
41547;DHT22;27271;45.412;10.852;2023-04-01T11:46:12;23.50;99.90
41547;DHT22;27271;45.412;10.852;2023-04-01T12:16:40;23.00;99.90
41547;DHT22;27271;45.412;10.852;2023-04-01T12:27:43;23.40;99.90
41547;DHT22;27271;45.412;10.852;2023-04-01T13:19:49;23.50;99.90
41547;DHT22;27271;45.412;10.852;2023-04-01T13:23:48;23.60;99.90
41547;DHT22;27271;45.412;10.852;2023-04-01T13:27:37;23.90;99.90
41547;DHT22;27271;45.412;10.852;2023-04-01T13:31:29;24.10;99.90
41547;DHT22;27271;45.412;10.852;2023-04-01T13:38:45;24.10;99.90
41547;DHT22;27271;45.412;10.852;2023-04-01T13:42:27;23.80;99.90
41547;DHT22;27271;45.412;10.852;2023-04-01T13:53:18;24.00;99.90
41547;DHT22;27271;45.412;10.852;2023-04-01T14:00:54;23.90;99.90
41547;DHT22;27271;45.412;10.852;2023-04-01T14:04:47;24.10;99.90
41547;DHT22;27271;45.412;10.852;2023-04-01T14:08:26;24.30;99.90
41547;DHT22;27271;45.412;10.852;2023-04-01T14:16:25;24.50;99.90
